Time;durP1;ratioP1;P1;durP2;ratioP2;P2;SDS_P1;SDS_P2;PMS_P1;PMS_P2;Temp;Humidity;BMP_temperature;BMP_pressure;BME280_temperature;BME280_humidity;BME280_pressure;Samples;Min_cycle;Max_cycle;Signal;HPM_P1;HPM_P2
2020/12/28 00:00:08;;;;;;;1.93;1.83;;;;;;;;;;2075659;28;20181;-56
2020/12/28 00:01:13;;;;;;;1.60;1.60;;;;;;;;;;2075394;28;20185;-57
2020/12/28 00:02:14;;;;;;;1.50;1.50;;;;;;;;;;2076186;28;20196;-56
2020/12/28 00:03:14;;;;;;;1.87;1.80;;;;;;;;;;2076356;28;20185;-53
2020/12/28 00:04:14;;;;;;;1.80;1.80;;;;;;;;;;2077674;28;20229;-52
2020/12/28 00:05:14;;;;;;;1.70;1.70;;;;;;;;;;2083419;28;20267;-53
2020/12/28 00:06:15;;;;;;;1.60;1.60;;;;;;;;;;2083552;28;20171;-51
2020/12/28 00:07:15;;;;;;;1.83;1.83;;;;;;;;;;2083633;28;20574;-57
2020/12/28 00:08:15;;;;;;;1.80;1.80;;;;;;;;;;2073128;28;20299;-56
2020/12/28 00:09:15;;;;;;;1.70;1.60;;;;;;;;;;2058358;28;20249;-56
2020/12/28 00:10:17;;;;;;;1.70;1.70;;;;;;;;;;2066245;28;20204;-56
2020/12/28 00:11:17;;;;;;;1.50;1.50;;;;;;;;;;2074767;28;20238;-58
2020/12/28 00:12:18;;;;;;;1.80;1.70;;;;;;;;;;2074815;28;20593;-58
2020/12/28 00:13:18;;;;;;;1.70;1.70;;;;;;;;;;2073582;28;20181;-54
2020/12/28 00:14:18;;;;;;;2.17;2.07;;;;;;;;;;2074562;28;20175;-56
2020/12/28 00:15:26;;;;;;;1.77;1.77;;;;;;;;;;2083878;28;20168;-54
2020/12/28 00:16:27;;;;;;;1.80;1.70;;;;;;;;;;2083998;28;20192;-57
2020/12/28 00:17:27;;;;;;;1.90;1.80;;;;;;;;;;2083234;28;20168;-54
2020/12/28 00:18:27;;;;;;;1.50;1.50;;;;;;;;;;2081996;28;20211;-56
2020/12/28 00:19:27;;;;;;;2.00;1.90;;;;;;;;;;2078269;28;20212;-54
2020/12/28 00:20:28;;;;;;;1.90;1.80;;;;;;;;;;2077663;28;20180;-55
2020/12/28 00:21:29;;;;;;;2.00;1.90;;;;;;;;;;2083765;28;20161;-57
2020/12/28 00:22:29;;;;;;;1.90;1.87;;;;;;;;;;2083997;28;20248;-53
2020/12/28 00:23:29;;;;;;;1.70;1.70;;;;;;;;;;2073691;28;20705;-56
2020/12/28 00:24:30;;;;;;;1.80;1.80;;;;;;;;;;2072870;28;20259;-54
2020/12/28 00:25:30;;;;;;;2.00;1.90;;;;;;;;;;2074940;28;20613;-54
2020/12/28 00:26:36;;;;;;;2.10;2.00;;;;;;;;;;2076517;28;20582;-56
2020/12/28 00:27:36;;;;;;;1.90;1.80;;;;;;;;;;2082691;28;20168;-53
2020/12/28 00:28:37;;;;;;;2.10;2.00;;;;;;;;;;2083039;28;20184;-54
2020/12/28 00:29:37;;;;;;;2.03;1.93;;;;;;;;;;2074550;28;20181;-56
2020/12/28 00:30:37;;;;;;;1.97;1.87;;;;;;;;;;2075015;28;20172;-54
2020/12/28 00:31:37;;;;;;;1.90;1.90;;;;;;;;;;2082534;28;20193;-54
2020/12/28 00:32:37;;;;;;;2.10;1.90;;;;;;;;;;2083445;28;20180;-56
2020/12/28 00:33:38;;;;;;;2.10;2.00;;;;;;;;;;2082870;28;20232;-54
2020/12/28 00:34:38;;;;;;;1.97;1.87;;;;;;;;;;2075387;28;20383;-57
2020/12/28 00:35:38;;;;;;;2.30;2.20;;;;;;;;;;2076623;28;20192;-52
2020/12/28 00:36:38;;;;;;;2.00;1.90;;;;;;;;;;2075286;28;20179;-54
2020/12/28 00:37:39;;;;;;;1.80;1.80;;;;;;;;;;2058267;28;20314;-53
2020/12/28 00:38:39;;;;;;;2.07;1.97;;;;;;;;;;2066170;28;20174;-56
2020/12/28 00:39:39;;;;;;;2.40;2.30;;;;;;;;;;2074178;28;20212;-57
2020/12/28 00:40:40;;;;;;;1.93;1.90;;;;;;;;;;2066082;28;20215;-57
2020/12/28 00:41:40;;;;;;;1.70;1.70;;;;;;;;;;2075564;28;20173;-56
2020/12/28 00:42:40;;;;;;;2.03;1.93;;;;;;;;;;2081927;28;20188;-53
2020/12/28 00:43:41;;;;;;;2.57;2.47;;;;;;;;;;2075463;28;20173;-54
2020/12/28 00:44:41;;;;;;;2.07;1.97;;;;;;;;;;2075244;28;20293;-52
2020/12/28 00:45:42;;;;;;;2.90;2.70;;;;;;;;;;2075165;28;20205;-56
2020/12/28 00:46:42;;;;;;;3.67;3.40;;;;;;;;;;2065643;28;20174;-52
2020/12/28 00:47:42;;;;;;;2.97;2.50;;;;;;;;;;2071619;28;20175;-56
2020/12/28 00:48:43;;;;;;;2.77;2.57;;;;;;;;;;2082825;28;20187;-54
2020/12/28 00:49:43;;;;;;;2.57;2.47;;;;;;;;;;2083104;28;20164;-53
2020/12/28 00:50:43;;;;;;;3.20;3.00;;;;;;;;;;2082750;28;20259;-54
2020/12/28 00:51:44;;;;;;;2.10;2.03;;;;;;;;;;2074186;28;20165;-53
2020/12/28 00:52:44;;;;;;;2.30;2.20;;;;;;;;;;2073795;28;20176;-56
2020/12/28 00:53:44;;;;;;;2.70;2.50;;;;;;;;;;2062819;28;20162;-56
2020/12/28 00:54:46;;;;;;;2.47;2.27;;;;;;;;;;2064042;28;20189;-57
2020/12/28 00:55:46;;;;;;;2.07;2.03;;;;;;;;;;2067190;28;20189;-54
2020/12/28 00:56:49;;;;;;;3.60;3.33;;;;;;;;;;2074186;28;20160;-54
2020/12/28 00:57:49;;;;;;;2.60;2.50;;;;;;;;;;2066674;28;20165;-54
2020/12/28 00:58:49;;;;;;;2.30;2.20;;;;;;;;;;2060337;28;20659;-58
2020/12/28 00:59:51;;;;;;;2.30;2.20;;;;;;;;;;2068109;28;20169;-58
2020/12/28 01:01:00;;;;;;;2.70;2.60;;;;;;;;;;2060549;28;20188;-59
2020/12/28 01:02:02;;;;;;;3.30;3.10;;;;;;;;;;2068355;28;20165;-59
2020/12/28 01:03:07;;;;;;;2.13;2.10;;;;;;;;;;2059401;28;20714;-59
2020/12/28 01:04:27;;;;;;;2.33;2.23;;;;;;;;;;2073504;28;20189;-54
2020/12/28 01:05:31;;;;;;;2.70;2.60;;;;;;;;;;2069892;28;20180;-57
2020/12/28 01:06:31;;;;;;;2.30;2.20;;;;;;;;;;2066751;28;20184;-59
2020/12/28 01:08:07;;;;;;;2.30;2.20;;;;;;;;;;2079157;28;20243;-57
2020/12/28 01:09:09;;;;;;;2.30;2.20;;;;;;;;;;2074550;28;20788;-57
2020/12/28 01:10:09;;;;;;;2.37;2.27;;;;;;;;;;2074812;28;20219;-56
2020/12/28 01:11:10;;;;;;;2.53;2.43;;;;;;;;;;2068333;28;20184;-53
2020/12/28 01:12:10;;;;;;;2.40;2.30;;;;;;;;;;2066923;28;20207;-56
2020/12/28 01:13:14;;;;;;;2.23;2.13;;;;;;;;;;2066894;28;20173;-55
2020/12/28 01:14:17;;;;;;;3.10;3.00;;;;;;;;;;2068508;28;20816;-54
2020/12/28 01:15:19;;;;;;;2.60;2.40;;;;;;;;;;2072617;28;20263;-53
2020/12/28 01:16:22;;;;;;;2.60;2.50;;;;;;;;;;2067024;28;20181;-55
2020/12/28 01:17:24;;;;;;;2.63;2.53;;;;;;;;;;2066207;28;20186;-56
2020/12/28 01:18:43;;;;;;;2.50;2.40;;;;;;;;;;2064085;28;20235;-56
2020/12/28 01:19:49;;;;;;;2.90;2.70;;;;;;;;;;2065898;28;20631;-54
2020/12/28 01:20:50;;;;;;;2.20;2.10;;;;;;;;;;2067301;28;20178;-54
2020/12/28 01:21:51;;;;;;;2.50;2.40;;;;;;;;;;2066676;28;20166;-57
2020/12/28 01:22:51;;;;;;;2.90;2.70;;;;;;;;;;2067267;28;20185;-57
2020/12/28 01:23:52;;;;;;;2.83;2.73;;;;;;;;;;2070212;28;20265;-57
2020/12/28 01:24:54;;;;;;;2.43;2.33;;;;;;;;;;2060336;28;20705;-55
2020/12/28 01:25:58;;;;;;;3.00;2.90;;;;;;;;;;2074962;28;20553;-53
2020/12/28 01:27:00;;;;;;;2.90;2.70;;;;;;;;;;2075120;28;20185;-55
2020/12/28 01:28:01;;;;;;;2.87;2.67;;;;;;;;;;2075197;28;20188;-57
2020/12/28 01:29:05;;;;;;;2.77;2.67;;;;;;;;;;2087651;28;20177;-57
2020/12/28 01:30:10;;;;;;;3.53;3.10;;;;;;;;;;2079737;28;20161;-57
2020/12/28 01:31:11;;;;;;;2.60;2.50;;;;;;;;;;2079877;28;20201;-59
2020/12/28 01:32:44;;;;;;;2.50;2.30;;;;;;;;;;2079038;28;20180;-58
2020/12/28 01:33:58;;;;;;;2.60;2.50;;;;;;;;;;2076399;28;20270;-55
2020/12/28 01:35:02;;;;;;;2.23;2.13;;;;;;;;;;2078724;28;20173;-59
2020/12/28 01:36:03;;;;;;;2.73;2.63;;;;;;;;;;2070581;28;20169;-57
2020/12/28 01:37:04;;;;;;;2.47;2.37;;;;;;;;;;2060075;28;20658;-58
2020/12/28 01:38:21;;;;;;;2.60;2.50;;;;;;;;;;2068208;28;20567;-59
2020/12/28 01:39:21;;;;;;;2.67;2.57;;;;;;;;;;2068297;28;20225;-56
2020/12/28 01:40:24;;;;;;;2.93;2.67;;;;;;;;;;2060671;28;20313;-59
2020/12/28 01:41:25;;;;;;;2.60;2.50;;;;;;;;;;2070521;28;20683;-56
2020/12/28 01:42:26;;;;;;;2.30;2.20;;;;;;;;;;2070054;28;20193;-55
2020/12/28 01:43:31;;;;;;;2.60;2.50;;;;;;;;;;2069327;28;20664;-57
2020/12/28 01:44:32;;;;;;;2.83;2.73;;;;;;;;;;2068241;28;20213;-54
2020/12/28 01:45:41;;;;;;;2.73;2.60;;;;;;;;;;2066309;28;20177;-58
2020/12/28 01:46:46;;;;;;;2.57;2.47;;;;;;;;;;2076551;28;20205;-55
2020/12/28 01:47:46;;;;;;;2.70;2.60;;;;;;;;;;2076407;28;20205;-53
2020/12/28 01:48:48;;;;;;;2.53;2.43;;;;;;;;;;2063252;28;20178;-55
2020/12/28 01:49:54;;;;;;;2.53;2.33;;;;;;;;;;2060458;28;20590;-54
2020/12/28 01:50:54;;;;;;;2.60;2.40;;;;;;;;;;2068112;28;20170;-56
2020/12/28 01:51:56;;;;;;;2.80;2.60;;;;;;;;;;2069084;28;20174;-55
2020/12/28 01:52:57;;;;;;;2.80;2.70;;;;;;;;;;2069796;28;20177;-55
2020/12/28 01:54:00;;;;;;;3.07;2.90;;;;;;;;;;2061233;28;20182;-55
2020/12/28 01:55:12;;;;;;;2.70;2.60;;;;;;;;;;2063181;28;20593;-53
2020/12/28 01:56:27;;;;;;;5.43;4.93;;;;;;;;;;2075728;28;20642;-53
2020/12/28 01:57:27;;;;;;;2.93;2.73;;;;;;;;;;2078641;28;20172;-57
2020/12/28 01:58:35;;;;;;;3.30;3.00;;;;;;;;;;2079586;28;20221;-57
2020/12/28 01:59:38;;;;;;;2.53;2.43;;;;;;;;;;2087600;28;20169;-54
2020/12/28 02:00:44;;;;;;;2.80;2.70;;;;;;;;;;2075372;28;20197;-53
2020/12/28 02:01:45;;;;;;;2.60;2.40;;;;;;;;;;2070065;28;20173;-57
2020/12/28 02:02:48;;;;;;;2.50;2.40;;;;;;;;;;2072776;28;20185;-53
2020/12/28 02:04:02;;;;;;;2.80;2.60;;;;;;;;;;2080640;28;20551;-56
2020/12/28 02:05:09;;;;;;;3.13;2.93;;;;;;;;;;2073636;28;20168;-59
2020/12/28 02:06:09;;;;;;;2.00;1.90;;;;;;;;;;2071840;28;20170;-54
2020/12/28 02:07:11;;;;;;;4.60;2.60;;;;;;;;;;2065380;28;20646;-54
2020/12/28 02:08:11;;;;;;;2.50;2.40;;;;;;;;;;2074070;28;20243;-54
2020/12/28 02:09:12;;;;;;;2.63;2.53;;;;;;;;;;2073743;28;20181;-57
2020/12/28 02:10:12;;;;;;;3.23;3.03;;;;;;;;;;2073177;28;20223;-58
2020/12/28 02:11:12;;;;;;;2.60;2.50;;;;;;;;;;2065939;28;20586;-55
2020/12/28 02:12:13;;;;;;;2.30;2.20;;;;;;;;;;2057749;28;20193;-54
2020/12/28 02:13:14;;;;;;;2.30;2.20;;;;;;;;;;2071312;28;20191;-58
2020/12/28 02:14:33;;;;;;;2.63;2.53;;;;;;;;;;2065822;28;20810;-53
2020/12/28 02:15:47;;;;;;;3.27;3.07;;;;;;;;;;2072811;28;20157;-55
2020/12/28 02:17:05;;;;;;;2.53;2.43;;;;;;;;;;2081590;28;20168;-54
2020/12/28 02:18:13;;;;;;;2.27;2.17;;;;;;;;;;2081458;28;20242;-55
2020/12/28 02:19:29;;;;;;;2.13;2.03;;;;;;;;;;2073079;28;20418;-55
2020/12/28 02:20:34;;;;;;;2.63;2.53;;;;;;;;;;2073853;28;20647;-56
2020/12/28 02:21:35;;;;;;;2.57;2.47;;;;;;;;;;2073797;28;20177;-54
2020/12/28 02:22:36;;;;;;;2.63;2.50;;;;;;;;;;2073737;28;20172;-56
2020/12/28 02:23:37;;;;;;;2.50;2.40;;;;;;;;;;2069006;28;20220;-54
2020/12/28 02:24:37;;;;;;;2.53;2.43;;;;;;;;;;2065860;28;20267;-54
2020/12/28 02:25:38;;;;;;;2.30;2.20;;;;;;;;;;2065746;28;20174;-58
2020/12/28 02:26:38;;;;;;;2.57;2.47;;;;;;;;;;2057744;28;20179;-58
2020/12/28 02:27:38;;;;;;;2.03;1.97;;;;;;;;;;2060594;28;20173;-57
2020/12/28 02:28:39;;;;;;;2.23;2.13;;;;;;;;;;2065704;28;20197;-56
2020/12/28 02:29:40;;;;;;;2.57;2.47;;;;;;;;;;2074157;28;20201;-54
2020/12/28 02:30:42;;;;;;;2.27;2.17;;;;;;;;;;2074048;28;20208;-55
2020/12/28 02:32:01;;;;;;;2.67;2.43;;;;;;;;;;2062362;28;20222;-56
2020/12/28 02:33:42;;;;;;;2.13;2.03;;;;;;;;;;2062217;28;20224;-54
2020/12/28 02:34:52;;;;;;;1.97;1.93;;;;;;;;;;2065530;28;20181;-58
2020/12/28 02:36:03;;;;;;;2.60;2.20;;;;;;;;;;2066978;28;20161;-57
2020/12/28 02:37:04;;;;;;;2.30;2.20;;;;;;;;;;2066101;28;20259;-59
2020/12/28 02:38:22;;;;;;;2.13;2.03;;;;;;;;;;2067586;28;20209;-58
2020/12/28 02:39:22;;;;;;;2.10;2.00;;;;;;;;;;2073720;28;20235;-58
2020/12/28 02:40:23;;;;;;;2.30;2.20;;;;;;;;;;2069068;28;20173;-56
2020/12/28 02:41:24;;;;;;;1.90;1.80;;;;;;;;;;2065664;28;20733;-53
2020/12/28 02:42:44;;;;;;;2.10;1.90;;;;;;;;;;2074020;28;20181;-58
2020/12/28 02:44:02;;;;;;;1.97;1.90;;;;;;;;;;2080567;28;20172;-53
2020/12/28 02:45:21;;;;;;;1.87;1.87;;;;;;;;;;2082429;28;20165;-55
2020/12/28 02:46:40;;;;;;;1.67;1.63;;;;;;;;;;2081813;28;20172;-55
2020/12/28 02:47:59;;;;;;;1.90;1.80;;;;;;;;;;2079073;28;20718;-54
2020/12/28 02:49:18;;;;;;;2.03;1.93;;;;;;;;;;2074215;28;20541;-53
2020/12/28 02:50:37;;;;;;;1.73;1.73;;;;;;;;;;2074281;28;20149;-56
2020/12/28 02:51:56;;;;;;;1.93;1.87;;;;;;;;;;2074670;28;20534;-55
2020/12/28 02:53:15;;;;;;;1.90;1.90;;;;;;;;;;2074701;28;20161;-55
2020/12/28 02:54:34;;;;;;;1.60;1.60;;;;;;;;;;2074528;28;20244;-52
2020/12/28 02:55:53;;;;;;;1.70;1.70;;;;;;;;;;2065871;28;20150;-54
2020/12/28 02:57:12;;;;;;;1.87;1.77;;;;;;;;;;2070386;28;20165;-55
2020/12/28 02:58:31;;;;;;;2.00;1.90;;;;;;;;;;2076615;28;20239;-54
2020/12/28 02:59:50;;;;;;;2.03;1.93;;;;;;;;;;2082297;28;20552;-53
2020/12/28 03:01:08;;;;;;;2.10;2.00;;;;;;;;;;2082389;28;20165;-53
2020/12/28 03:02:27;;;;;;;2.10;2.00;;;;;;;;;;2083017;28;20605;-56
2020/12/28 03:03:46;;;;;;;1.77;1.67;;;;;;;;;;2073412;28;20164;-56
2020/12/28 03:05:05;;;;;;;1.87;1.77;;;;;;;;;;2078559;28;20180;-53
2020/12/28 03:06:24;;;;;;;2.10;2.00;;;;;;;;;;2082408;28;20160;-53
2020/12/28 03:07:43;;;;;;;1.63;1.63;;;;;;;;;;2073501;28;20161;-53
2020/12/28 03:09:02;;;;;;;2.00;1.90;;;;;;;;;;2074595;28;20177;-52
2020/12/28 03:10:21;;;;;;;1.90;1.90;;;;;;;;;;2077035;28;20176;-56
2020/12/28 03:11:40;;;;;;;2.10;2.00;;;;;;;;;;2082416;28;20164;-57
2020/12/28 03:12:59;;;;;;;1.97;1.87;;;;;;;;;;2082755;28;20181;-55
2020/12/28 03:14:18;;;;;;;2.10;2.00;;;;;;;;;;2082911;28;20541;-57
2020/12/28 03:15:37;;;;;;;2.10;2.00;;;;;;;;;;2068270;28;20181;-57
2020/12/28 03:16:56;;;;;;;2.17;2.07;;;;;;;;;;2070928;28;20160;-53
2020/12/28 03:18:15;;;;;;;2.10;2.00;;;;;;;;;;2073707;28;20196;-55
2020/12/28 03:19:34;;;;;;;1.87;1.87;;;;;;;;;;2073221;28;20760;-56
2020/12/28 03:20:53;;;;;;;2.00;1.90;;;;;;;;;;2079810;28;20160;-56
2020/12/28 03:22:11;;;;;;;2.37;2.23;;;;;;;;;;2082378;28;20221;-55
2020/12/28 03:23:30;;;;;;;2.30;2.20;;;;;;;;;;2079558;28;20172;-53
2020/12/28 03:24:49;;;;;;;2.07;1.97;;;;;;;;;;2074108;28;20165;-55
2020/12/28 03:26:08;;;;;;;2.10;2.00;;;;;;;;;;2073799;28;20578;-57
2020/12/28 03:27:27;;;;;;;2.17;2.07;;;;;;;;;;2079010;28;20180;-57
2020/12/28 03:28:46;;;;;;;2.10;2.00;;;;;;;;;;2078394;28;20653;-57
2020/12/28 03:30:05;;;;;;;1.90;1.90;;;;;;;;;;2074128;28;20157;-56
2020/12/28 03:31:27;;;;;;;2.10;2.00;;;;;;;;;;2073877;28;20647;-58
2020/12/28 03:32:46;;;;;;;1.97;1.87;;;;;;;;;;2073938;28;20235;-53
2020/12/28 03:34:06;;;;;;;2.10;2.00;;;;;;;;;;2081999;28;20164;-52
2020/12/28 03:35:25;;;;;;;2.20;2.10;;;;;;;;;;2082149;28;20145;-56
2020/12/28 03:36:44;;;;;;;2.00;1.90;;;;;;;;;;2081915;28;20173;-59
2020/12/28 03:38:04;;;;;;;2.37;2.03;;;;;;;;;;2056315;28;20214;-59
2020/12/28 03:39:43;;;;;;;2.30;2.20;;;;;;;;;;2048861;29;20573;-54
2020/12/28 03:41:02;;;;;;;2.13;2.00;;;;;;;;;;2055973;28;20163;-57
2020/12/28 03:42:21;;;;;;;2.43;2.27;;;;;;;;;;2056678;28;20170;-55
2020/12/28 03:43:40;;;;;;;2.10;1.83;;;;;;;;;;2059532;28;20170;-54
2020/12/28 03:44:59;;;;;;;2.20;2.10;;;;;;;;;;2057884;28;20167;-53
2020/12/28 03:46:18;;;;;;;2.37;2.27;;;;;;;;;;2073493;28;20626;-54
2020/12/28 03:47:37;;;;;;;2.67;2.57;;;;;;;;;;2073239;28;20658;-52
2020/12/28 03:48:56;;;;;;;2.27;2.17;;;;;;;;;;2079467;28;20152;-52
2020/12/28 03:50:15;;;;;;;2.50;2.30;;;;;;;;;;2080254;28;20552;-55
2020/12/28 03:51:34;;;;;;;2.70;2.60;;;;;;;;;;2082687;28;20625;-56
2020/12/28 03:52:53;;;;;;;2.23;2.13;;;;;;;;;;2083076;28;20191;-54
2020/12/28 03:54:13;;;;;;;2.43;2.33;;;;;;;;;;2075297;28;20173;-55
2020/12/28 03:55:32;;;;;;;1.93;1.83;;;;;;;;;;2079602;28;20184;-57
2020/12/28 03:56:50;;;;;;;2.40;2.30;;;;;;;;;;2073677;28;20169;-55
2020/12/28 03:58:09;;;;;;;2.43;2.33;;;;;;;;;;2080064;28;20204;-54
2020/12/28 03:59:28;;;;;;;2.43;2.33;;;;;;;;;;2082340;28;20164;-55
2020/12/28 04:00:47;;;;;;;2.67;2.47;;;;;;;;;;2082786;28;20203;-55
2020/12/28 04:02:20;;;;;;;2.50;2.40;;;;;;;;;;2057944;28;20890;-56
2020/12/28 04:03:38;;;;;;;2.77;2.67;;;;;;;;;;2074710;28;20220;-54
2020/12/28 04:04:57;;;;;;;2.43;2.33;;;;;;;;;;2073624;28;20161;-54
2020/12/28 04:06:15;;;;;;;2.37;2.27;;;;;;;;;;2074334;28;20252;-57
2020/12/28 04:07:34;;;;;;;2.40;2.30;;;;;;;;;;2074350;28;20267;-53
2020/12/28 04:08:53;;;;;;;2.40;2.30;;;;;;;;;;2105807;22;20601;-58
2020/12/28 04:10:13;;;;;;;2.40;2.30;;;;;;;;;;2075025;28;20589;-60
2020/12/28 04:11:36;;;;;;;2.53;2.40;;;;;;;;;;2078858;28;20189;-56
2020/12/28 04:12:47;;;;;;;2.57;2.47;;;;;;;;;;2072321;28;20208;-57
2020/12/28 04:13:47;;;;;;;2.50;2.40;;;;;;;;;;2066329;28;20222;-60
2020/12/28 04:14:47;;;;;;;2.93;2.83;;;;;;;;;;2077376;28;20169;-55
2020/12/28 04:15:48;;;;;;;2.60;2.50;;;;;;;;;;2075333;28;20169;-55
2020/12/28 04:16:48;;;;;;;2.50;2.40;;;;;;;;;;2068038;28;20253;-59
2020/12/28 04:17:49;;;;;;;2.37;2.27;;;;;;;;;;2074154;28;20204;-54
2020/12/28 04:18:49;;;;;;;2.90;2.80;;;;;;;;;;2080479;28;20175;-56
2020/12/28 04:19:49;;;;;;;2.40;2.30;;;;;;;;;;2083280;28;20220;-57
2020/12/28 04:20:49;;;;;;;2.40;2.30;;;;;;;;;;2084417;28;20174;-57
2020/12/28 04:21:50;;;;;;;2.50;2.40;;;;;;;;;;2081687;28;20195;-58
2020/12/28 04:22:50;;;;;;;2.50;2.40;;;;;;;;;;2081114;28;20206;-58
2020/12/28 04:23:50;;;;;;;2.87;2.77;;;;;;;;;;2081651;28;20176;-57
2020/12/28 04:24:50;;;;;;;2.60;2.50;;;;;;;;;;2081881;28;20180;-56
2020/12/28 04:25:51;;;;;;;2.43;2.33;;;;;;;;;;2081542;28;20179;-58
2020/12/28 04:26:51;;;;;;;2.70;2.60;;;;;;;;;;2076108;28;20252;-57
2020/12/28 04:27:51;;;;;;;2.57;2.47;;;;;;;;;;2073403;28;20222;-58
2020/12/28 04:28:51;;;;;;;2.60;2.50;;;;;;;;;;2080179;28;20173;-55
2020/12/28 04:29:51;;;;;;;2.33;2.13;;;;;;;;;;2064464;28;20626;-57
2020/12/28 04:30:52;;;;;;;2.50;2.40;;;;;;;;;;2064709;28;20177;-55
2020/12/28 04:31:52;;;;;;;2.80;2.70;;;;;;;;;;2073412;28;20172;-58
2020/12/28 04:32:52;;;;;;;2.30;2.20;;;;;;;;;;2079715;28;20184;-55
2020/12/28 04:33:53;;;;;;;2.80;2.70;;;;;;;;;;2064350;28;20285;-56
2020/12/28 04:34:53;;;;;;;2.73;2.63;;;;;;;;;;2064366;28;20634;-56
2020/12/28 04:35:53;;;;;;;3.90;3.03;;;;;;;;;;2072213;28;20749;-56
2020/12/28 04:36:53;;;;;;;2.60;2.50;;;;;;;;;;2072374;28;20173;-56
2020/12/28 04:37:54;;;;;;;5.67;3.07;;;;;;;;;;2072350;28;20185;-56
2020/12/28 04:38:54;;;;;;;2.93;2.73;;;;;;;;;;2064316;28;20165;-57
2020/12/28 04:39:54;;;;;;;3.30;3.10;;;;;;;;;;2064748;28;20651;-59
2020/12/28 04:40:55;;;;;;;4.23;3.27;;;;;;;;;;2072843;28;20251;-58
2020/12/28 04:41:55;;;;;;;3.40;3.20;;;;;;;;;;2081587;28;20167;-57
2020/12/28 04:42:56;;;;;;;3.10;3.00;;;;;;;;;;2081636;28;20172;-57
2020/12/28 04:43:56;;;;;;;3.47;3.27;;;;;;;;;;2075924;28;20192;-56
2020/12/28 04:44:56;;;;;;;3.83;3.53;;;;;;;;;;2064461;28;20173;-56
2020/12/28 04:46:00;;;;;;;3.37;3.17;;;;;;;;;;2069920;28;20247;-59
2020/12/28 04:47:01;;;;;;;3.50;3.20;;;;;;;;;;2072654;28;20213;-56
2020/12/28 04:48:01;;;;;;;3.60;3.40;;;;;;;;;;2080701;28;20187;-59
2020/12/28 04:49:01;;;;;;;3.70;3.50;;;;;;;;;;2081354;28;20204;-58
2020/12/28 04:50:02;;;;;;;3.43;3.13;;;;;;;;;;2081840;28;20172;-57
2020/12/28 04:51:03;;;;;;;3.40;3.20;;;;;;;;;;2081770;28;20199;-58
2020/12/28 04:52:03;;;;;;;3.30;3.10;;;;;;;;;;2073018;28;20173;-60
2020/12/28 04:53:04;;;;;;;3.60;3.40;;;;;;;;;;2073083;28;20216;-58
2020/12/28 04:54:04;;;;;;;2.90;2.77;;;;;;;;;;2072708;28;20180;-55
2020/12/28 04:55:05;;;;;;;3.27;3.07;;;;;;;;;;2073000;28;20189;-58
2020/12/28 04:56:05;;;;;;;3.70;3.50;;;;;;;;;;2081868;28;20164;-57
2020/12/28 04:57:06;;;;;;;3.60;3.40;;;;;;;;;;2081229;28;20188;-60
2020/12/28 04:58:06;;;;;;;3.60;3.40;;;;;;;;;;2082283;28;20176;-59
2020/12/28 04:59:06;;;;;;;3.80;3.60;;;;;;;;;;2073032;28;20240;-60
2020/12/28 05:00:07;;;;;;;3.83;3.60;;;;;;;;;;2064910;28;20222;-55
2020/12/28 05:01:07;;;;;;;3.70;3.50;;;;;;;;;;2073187;28;20735;-59
2020/12/28 05:02:07;;;;;;;4.37;4.07;;;;;;;;;;2072941;28;20256;-55
2020/12/28 05:03:07;;;;;;;3.53;3.33;;;;;;;;;;2072851;28;20197;-59
2020/12/28 05:04:08;;;;;;;4.17;3.97;;;;;;;;;;2081561;28;20167;-59
2020/12/28 05:05:08;;;;;;;4.33;4.03;;;;;;;;;;2082007;28;20182;-58
2020/12/28 05:06:09;;;;;;;4.00;3.80;;;;;;;;;;2073458;28;20638;-59
2020/12/28 05:07:09;;;;;;;4.47;4.17;;;;;;;;;;2073184;28;20197;-58
2020/12/28 05:08:09;;;;;;;4.30;4.00;;;;;;;;;;2082254;28;20179;-57
2020/12/28 05:09:10;;;;;;;4.20;4.00;;;;;;;;;;2082351;28;20223;-58
2020/12/28 05:10:19;;;;;;;4.50;4.20;;;;;;;;;;2083051;28;20180;-56
2020/12/28 05:11:19;;;;;;;4.20;4.00;;;;;;;;;;2082842;28;20164;-57
2020/12/28 05:12:21;;;;;;;4.57;4.37;;;;;;;;;;2074481;28;20832;-54
2020/12/28 05:13:21;;;;;;;4.57;4.30;;;;;;;;;;2075000;28;20180;-58
2020/12/28 05:14:22;;;;;;;4.90;4.50;;;;;;;;;;2084561;28;20817;-59
2020/12/28 05:15:22;;;;;;;4.73;4.43;;;;;;;;;;2084751;28;20176;-57
2020/12/28 05:16:22;;;;;;;5.00;4.70;;;;;;;;;;2085404;28;20187;-57
2020/12/28 05:17:23;;;;;;;4.57;4.27;;;;;;;;;;2084213;28;20275;-60
2020/12/28 05:18:24;;;;;;;4.33;4.00;;;;;;;;;;2074422;28;20212;-57
2020/12/28 05:19:24;;;;;;;4.40;4.10;;;;;;;;;;2067032;28;20193;-59
2020/12/28 05:20:24;;;;;;;4.10;3.77;;;;;;;;;;2069100;28;20193;-58
2020/12/28 05:21:25;;;;;;;4.17;3.97;;;;;;;;;;2067256;28;20197;-57
2020/12/28 05:22:28;;;;;;;5.00;4.70;;;;;;;;;;2067218;28;20265;-56
2020/12/28 05:23:30;;;;;;;4.17;3.97;;;;;;;;;;2075691;28;20629;-58
2020/12/28 05:24:31;;;;;;;4.30;4.00;;;;;;;;;;2082827;28;20203;-59
2020/12/28 05:25:31;;;;;;;3.90;3.67;;;;;;;;;;2075457;28;20177;-57
2020/12/28 05:26:32;;;;;;;4.23;4.00;;;;;;;;;;2075863;28;20187;-59
2020/12/28 05:27:32;;;;;;;4.10;3.90;;;;;;;;;;2084244;28;20180;-59
2020/12/28 05:28:36;;;;;;;4.03;3.73;;;;;;;;;;2086571;28;20176;-58
2020/12/28 05:29:37;;;;;;;3.90;3.60;;;;;;;;;;2086861;28;20207;-60
2020/12/28 05:30:41;;;;;;;4.10;3.90;;;;;;;;;;2086144;28;20251;-58
2020/12/28 05:31:42;;;;;;;4.10;3.80;;;;;;;;;;2086000;28;20180;-57
2020/12/28 05:32:46;;;;;;;3.73;3.53;;;;;;;;;;2086755;28;20184;-60
2020/12/28 05:33:46;;;;;;;3.90;3.70;;;;;;;;;;2079315;28;20181;-59
2020/12/28 05:34:47;;;;;;;3.70;3.50;;;;;;;;;;2077680;28;20644;-57
2020/12/28 05:35:47;;;;;;;4.60;3.60;;;;;;;;;;2077482;28;20173;-56
2020/12/28 05:36:48;;;;;;;3.67;3.47;;;;;;;;;;2078989;28;20184;-55
2020/12/28 05:37:50;;;;;;;3.90;3.70;;;;;;;;;;2087154;28;20638;-58
2020/12/28 05:38:51;;;;;;;3.47;3.33;;;;;;;;;;2077427;28;20187;-57
2020/12/28 05:39:51;;;;;;;4.00;3.80;;;;;;;;;;2081063;28;20257;-58
2020/12/28 05:41:00;;;;;;;3.83;3.63;;;;;;;;;;2090933;28;20184;-59
2020/12/28 05:42:11;;;;;;;4.10;3.90;;;;;;;;;;2090315;28;20153;-58
2020/12/28 05:43:11;;;;;;;4.27;3.97;;;;;;;;;;2080024;28;20165;-61
2020/12/28 05:44:11;;;;;;;4.27;3.97;;;;;;;;;;2069521;28;20205;-56
2020/12/28 05:45:12;;;;;;;4.10;3.90;;;;;;;;;;2077937;28;20216;-56
2020/12/28 05:46:20;;;;;;;4.50;4.20;;;;;;;;;;2086488;28;20198;-55
2020/12/28 05:47:20;;;;;;;4.13;3.83;;;;;;;;;;2086415;28;20176;-64
2020/12/28 05:48:22;;;;;;;3.73;3.53;;;;;;;;;;2086266;28;20172;-56
2020/12/28 05:49:23;;;;;;;4.83;4.53;;;;;;;;;;2084533;28;20188;-60
2020/12/28 05:50:24;;;;;;;4.07;3.87;;;;;;;;;;2075974;28;20173;-57
2020/12/28 05:51:26;;;;;;;4.50;4.20;;;;;;;;;;2076968;28;20176;-56
2020/12/28 05:52:26;;;;;;;4.50;4.20;;;;;;;;;;2086343;28;20652;-59
2020/12/28 05:53:26;;;;;;;4.17;3.87;;;;;;;;;;2083623;28;20246;-56
2020/12/28 05:54:28;;;;;;;4.47;4.17;;;;;;;;;;2075001;28;20235;-58
2020/12/28 05:55:29;;;;;;;4.83;4.53;;;;;;;;;;2074759;28;20185;-58
2020/12/28 05:56:30;;;;;;;4.90;4.60;;;;;;;;;;2075340;28;20185;-60
2020/12/28 05:57:30;;;;;;;5.27;4.97;;;;;;;;;;2066369;28;20177;-57
2020/12/28 05:58:30;;;;;;;4.90;4.50;;;;;;;;;;2074470;28;20857;-58
2020/12/28 05:59:31;;;;;;;5.07;4.67;;;;;;;;;;2066242;28;20581;-57
2020/12/28 06:00:34;;;;;;;5.50;5.10;;;;;;;;;;2082504;28;20263;-57
2020/12/28 06:01:37;;;;;;;5.13;4.80;;;;;;;;;;2074143;28;20268;-57
2020/12/28 06:02:38;;;;;;;5.83;5.30;;;;;;;;;;2074433;28;20260;-57
2020/12/28 06:03:40;;;;;;;5.80;5.30;;;;;;;;;;2074191;28;20693;-58
2020/12/28 06:04:42;;;;;;;6.03;5.63;;;;;;;;;;2074815;28;20596;-58
2020/12/28 06:05:47;;;;;;;5.67;5.27;;;;;;;;;;2082671;28;20192;-57
2020/12/28 06:06:47;;;;;;;6.10;5.60;;;;;;;;;;2074184;28;20239;-58
2020/12/28 06:07:48;;;;;;;5.90;5.50;;;;;;;;;;2065502;28;20212;-58
2020/12/28 06:08:48;;;;;;;5.43;5.03;;;;;;;;;;2065606;28;20658;-59
2020/12/28 06:09:55;;;;;;;5.70;5.30;;;;;;;;;;2074747;28;20276;-57
2020/12/28 06:10:55;;;;;;;6.00;5.60;;;;;;;;;;2073742;28;20641;-57
2020/12/28 06:12:05;;;;;;;6.20;5.70;;;;;;;;;;2066509;28;20189;-58
2020/12/28 06:13:05;;;;;;;5.80;5.33;;;;;;;;;;2074352;28;20177;-56
2020/12/28 06:14:12;;;;;;;5.80;5.40;;;;;;;;;;2066085;28;20249;-57
2020/12/28 06:15:19;;;;;;;5.90;5.37;;;;;;;;;;2069678;28;20345;-57
2020/12/28 06:16:23;;;;;;;5.90;5.50;;;;;;;;;;2066907;28;20212;-54
2020/12/28 06:17:36;;;;;;;6.13;5.63;;;;;;;;;;2070154;28;20196;-54
2020/12/28 06:18:36;;;;;;;6.40;5.90;;;;;;;;;;2066308;28;20209;-58
2020/12/28 06:19:37;;;;;;;6.73;6.13;;;;;;;;;;2061588;28;20264;-57
2020/12/28 06:20:37;;;;;;;6.00;5.60;;;;;;;;;;2073798;28;20208;-57
2020/12/28 06:21:38;;;;;;;6.40;5.90;;;;;;;;;;2070740;28;20899;-55
2020/12/28 06:22:39;;;;;;;6.53;5.93;;;;;;;;;;2068231;28;20177;-57
2020/12/28 06:23:47;;;;;;;6.53;5.93;;;;;;;;;;2081102;28;20187;-55
2020/12/28 06:25:11;;;;;;;6.30;5.60;;;;;;;;;;2074253;28;20178;-57
2020/12/28 06:26:17;;;;;;;6.43;5.93;;;;;;;;;;2073547;28;20176;-54
2020/12/28 06:27:24;;;;;;;6.50;6.07;;;;;;;;;;2072926;28;20254;-56
2020/12/28 06:28:28;;;;;;;6.23;5.73;;;;;;;;;;2074207;28;20178;-57
2020/12/28 06:29:28;;;;;;;6.37;5.90;;;;;;;;;;2072944;28;20209;-55
2020/12/28 06:30:29;;;;;;;6.80;6.30;;;;;;;;;;2074208;28;20189;-57
2020/12/28 06:31:29;;;;;;;6.00;5.60;;;;;;;;;;2077166;28;20185;-58
2020/12/28 06:32:29;;;;;;;7.03;6.03;;;;;;;;;;2079199;28;20168;-58
2020/12/28 06:33:30;;;;;;;7.03;6.43;;;;;;;;;;2073833;28;20207;-56
2020/12/28 06:34:30;;;;;;;6.93;6.43;;;;;;;;;;2065931;28;20186;-58